sensor_id;sensor_type;location;lat;lon;timestamp;P1;durP1;ratioP1;P2;durP2;ratioP2
3006;SDS011;1513;47.650;10.720;2023-06-24T00:00:55;10.63;;;6.00;;
3006;SDS011;1513;47.650;10.720;2023-06-24T00:03:22;8.80;;;5.00;;
3006;SDS011;1513;47.650;10.720;2023-06-24T00:05:48;6.80;;;4.50;;
3006;SDS011;1513;47.650;10.720;2023-06-24T00:08:15;9.80;;;5.30;;
3006;SDS011;1513;47.650;10.720;2023-06-24T00:10:48;6.37;;;4.63;;
3006;SDS011;1513;47.650;10.720;2023-06-24T00:13:15;8.17;;;4.47;;
3006;SDS011;1513;47.650;10.720;2023-06-24T00:15:42;7.97;;;4.17;;
3006;SDS011;1513;47.650;10.720;2023-06-24T00:18:09;5.33;;;4.47;;
3006;SDS011;1513;47.650;10.720;2023-06-24T00:20:36;6.03;;;4.10;;
3006;SDS011;1513;47.650;10.720;2023-06-24T00:23:03;5.57;;;4.40;;
3006;SDS011;1513;47.650;10.720;2023-06-24T00:25:29;6.13;;;4.00;;
3006;SDS011;1513;47.650;10.720;2023-06-24T00:27:56;7.40;;;4.83;;
3006;SDS011;1513;47.650;10.720;2023-06-24T00:30:22;7.30;;;4.83;;
3006;SDS011;1513;47.650;10.720;2023-06-24T00:32:49;5.97;;;4.60;;
3006;SDS011;1513;47.650;10.720;2023-06-24T00:35:15;5.23;;;4.27;;
3006;SDS011;1513;47.650;10.720;2023-06-24T00:37:42;11.63;;;5.43;;
3006;SDS011;1513;47.650;10.720;2023-06-24T00:40:10;8.13;;;6.30;;
3006;SDS011;1513;47.650;10.720;2023-06-24T00:42:40;7.17;;;4.40;;
3006;SDS011;1513;47.650;10.720;2023-06-24T00:45:08;9.73;;;4.60;;
3006;SDS011;1513;47.650;10.720;2023-06-24T00:47:35;6.80;;;4.83;;
3006;SDS011;1513;47.650;10.720;2023-06-24T00:50:02;5.00;;;3.97;;
3006;SDS011;1513;47.650;10.720;2023-06-24T00:52:29;5.57;;;4.33;;
3006;SDS011;1513;47.650;10.720;2023-06-24T00:54:56;9.43;;;3.90;;
3006;SDS011;1513;47.650;10.720;2023-06-24T00:57:22;6.77;;;4.77;;
3006;SDS011;1513;47.650;10.720;2023-06-24T00:59:49;6.67;;;4.10;;
3006;SDS011;1513;47.650;10.720;2023-06-24T01:02:22;5.53;;;4.50;;
3006;SDS011;1513;47.650;10.720;2023-06-24T01:04:53;5.70;;;4.10;;
3006;SDS011;1513;47.650;10.720;2023-06-24T01:07:20;8.53;;;4.70;;
3006;SDS011;1513;47.650;10.720;2023-06-24T01:09:47;6.03;;;4.47;;
3006;SDS011;1513;47.650;10.720;2023-06-24T01:12:14;8.30;;;4.90;;
3006;SDS011;1513;47.650;10.720;2023-06-24T01:14:40;6.23;;;4.70;;
3006;SDS011;1513;47.650;10.720;2023-06-24T01:17:18;7.30;;;4.60;;
3006;SDS011;1513;47.650;10.720;2023-06-24T01:20:02;5.43;;;4.63;;
3006;SDS011;1513;47.650;10.720;2023-06-24T01:33:36;6.77;;;4.60;;
3006;SDS011;1513;47.650;10.720;2023-06-24T01:36:14;5.13;;;4.10;;
3006;SDS011;1513;47.650;10.720;2023-06-24T01:38:44;5.93;;;4.03;;
3006;SDS011;1513;47.650;10.720;2023-06-24T01:41:14;6.07;;;4.60;;
3006;SDS011;1513;47.650;10.720;2023-06-24T01:43:44;7.40;;;4.77;;
3006;SDS011;1513;47.650;10.720;2023-06-24T01:46:10;7.77;;;4.50;;
3006;SDS011;1513;47.650;10.720;2023-06-24T01:48:39;5.70;;;4.27;;
3006;SDS011;1513;47.650;10.720;2023-06-24T01:51:09;5.17;;;4.47;;
3006;SDS011;1513;47.650;10.720;2023-06-24T01:53:44;4.53;;;4.07;;
3006;SDS011;1513;47.650;10.720;2023-06-24T01:56:14;5.63;;;4.10;;
3006;SDS011;1513;47.650;10.720;2023-06-24T01:58:43;6.00;;;4.40;;
3006;SDS011;1513;47.650;10.720;2023-06-24T02:01:12;6.00;;;4.50;;
3006;SDS011;1513;47.650;10.720;2023-06-24T02:03:40;5.10;;;3.93;;
3006;SDS011;1513;47.650;10.720;2023-06-24T02:06:09;8.87;;;4.93;;
3006;SDS011;1513;47.650;10.720;2023-06-24T02:08:35;6.13;;;4.60;;
3006;SDS011;1513;47.650;10.720;2023-06-24T02:11:03;5.80;;;4.43;;
3006;SDS011;1513;47.650;10.720;2023-06-24T02:13:30;6.50;;;4.80;;
3006;SDS011;1513;47.650;10.720;2023-06-24T02:15:58;5.27;;;4.70;;
3006;SDS011;1513;47.650;10.720;2023-06-24T02:18:25;5.47;;;4.13;;
3006;SDS011;1513;47.650;10.720;2023-06-24T02:20:53;6.10;;;4.53;;
3006;SDS011;1513;47.650;10.720;2023-06-24T02:23:20;7.87;;;5.20;;
3006;SDS011;1513;47.650;10.720;2023-06-24T02:25:47;5.33;;;3.60;;
3006;SDS011;1513;47.650;10.720;2023-06-24T02:28:15;4.37;;;3.77;;
3006;SDS011;1513;47.650;10.720;2023-06-24T02:30:41;11.00;;;4.80;;
3006;SDS011;1513;47.650;10.720;2023-06-24T02:33:08;6.23;;;4.20;;
3006;SDS011;1513;47.650;10.720;2023-06-24T02:35:37;4.40;;;3.87;;
3006;SDS011;1513;47.650;10.720;2023-06-24T02:38:03;6.50;;;4.47;;
3006;SDS011;1513;47.650;10.720;2023-06-24T02:40:30;5.83;;;4.10;;
3006;SDS011;1513;47.650;10.720;2023-06-24T02:42:57;7.47;;;4.93;;
3006;SDS011;1513;47.650;10.720;2023-06-24T02:45:25;5.40;;;4.30;;
3006;SDS011;1513;47.650;10.720;2023-06-24T02:47:53;5.50;;;4.80;;
3006;SDS011;1513;47.650;10.720;2023-06-24T02:50:19;5.47;;;4.60;;
3006;SDS011;1513;47.650;10.720;2023-06-24T02:52:48;5.50;;;4.67;;
3006;SDS011;1513;47.650;10.720;2023-06-24T02:55:18;6.57;;;4.80;;
3006;SDS011;1513;47.650;10.720;2023-06-24T02:57:47;5.57;;;4.70;;
3006;SDS011;1513;47.650;10.720;2023-06-24T03:00:19;6.43;;;4.83;;
3006;SDS011;1513;47.650;10.720;2023-06-24T03:03:12;5.83;;;4.67;;
3006;SDS011;1513;47.650;10.720;2023-06-24T03:05:49;7.83;;;5.50;;
3006;SDS011;1513;47.650;10.720;2023-06-24T03:08:19;9.67;;;5.60;;
3006;SDS011;1513;47.650;10.720;2023-06-24T03:10:48;6.57;;;5.27;;
3006;SDS011;1513;47.650;10.720;2023-06-24T03:13:19;7.07;;;5.30;;
3006;SDS011;1513;47.650;10.720;2023-06-24T03:15:51;9.10;;;6.47;;
3006;SDS011;1513;47.650;10.720;2023-06-24T03:18:17;9.87;;;6.83;;
3006;SDS011;1513;47.650;10.720;2023-06-24T03:20:46;8.87;;;6.47;;
3006;SDS011;1513;47.650;10.720;2023-06-24T03:23:16;7.77;;;5.60;;
3006;SDS011;1513;47.650;10.720;2023-06-24T03:25:43;8.67;;;6.43;;
3006;SDS011;1513;47.650;10.720;2023-06-24T03:28:10;7.90;;;5.70;;
3006;SDS011;1513;47.650;10.720;2023-06-24T03:30:43;7.77;;;5.87;;
3006;SDS011;1513;47.650;10.720;2023-06-24T03:33:12;8.13;;;5.60;;
3006;SDS011;1513;47.650;10.720;2023-06-24T03:35:43;8.47;;;6.30;;
3006;SDS011;1513;47.650;10.720;2023-06-24T03:38:13;8.40;;;6.37;;
3006;SDS011;1513;47.650;10.720;2023-06-24T03:40:40;9.03;;;7.00;;
3006;SDS011;1513;47.650;10.720;2023-06-24T03:43:06;13.90;;;7.30;;
3006;SDS011;1513;47.650;10.720;2023-06-24T03:45:33;10.53;;;7.10;;
3006;SDS011;1513;47.650;10.720;2023-06-24T03:47:59;12.70;;;7.17;;
3006;SDS011;1513;47.650;10.720;2023-06-24T03:50:27;8.57;;;6.20;;
3006;SDS011;1513;47.650;10.720;2023-06-24T03:52:54;10.13;;;7.13;;
3006;SDS011;1513;47.650;10.720;2023-06-24T03:55:20;10.37;;;7.43;;
3006;SDS011;1513;47.650;10.720;2023-06-24T03:57:47;12.63;;;7.30;;
3006;SDS011;1513;47.650;10.720;2023-06-24T04:00:13;10.80;;;7.27;;
3006;SDS011;1513;47.650;10.720;2023-06-24T04:02:42;9.33;;;6.77;;
3006;SDS011;1513;47.650;10.720;2023-06-24T04:05:10;8.67;;;6.33;;
3006;SDS011;1513;47.650;10.720;2023-06-24T04:07:36;8.60;;;6.60;;
3006;SDS011;1513;47.650;10.720;2023-06-24T04:10:05;8.77;;;7.40;;
3006;SDS011;1513;47.650;10.720;2023-06-24T04:12:35;9.20;;;6.80;;
3006;SDS011;1513;47.650;10.720;2023-06-24T04:15:05;11.47;;;6.80;;
3006;SDS011;1513;47.650;10.720;2023-06-24T04:17:32;11.50;;;7.10;;
3006;SDS011;1513;47.650;10.720;2023-06-24T04:19:59;9.37;;;6.63;;
3006;SDS011;1513;47.650;10.720;2023-06-24T04:22:25;10.73;;;7.53;;
3006;SDS011;1513;47.650;10.720;2023-06-24T04:24:56;8.70;;;7.10;;
3006;SDS011;1513;47.650;10.720;2023-06-24T04:27:23;11.97;;;7.73;;
3006;SDS011;1513;47.650;10.720;2023-06-24T04:29:49;10.17;;;7.40;;
3006;SDS011;1513;47.650;10.720;2023-06-24T04:32:15;15.40;;;8.30;;
3006;SDS011;1513;47.650;10.720;2023-06-24T04:34:42;8.40;;;6.63;;
3006;SDS011;1513;47.650;10.720;2023-06-24T04:37:08;11.33;;;7.30;;
3006;SDS011;1513;47.650;10.720;2023-06-24T04:39:35;9.03;;;7.03;;
3006;SDS011;1513;47.650;10.720;2023-06-24T04:42:01;11.40;;;7.67;;
3006;SDS011;1513;47.650;10.720;2023-06-24T04:44:27;13.40;;;7.93;;
3006;SDS011;1513;47.650;10.720;2023-06-24T04:46:54;11.00;;;7.23;;
3006;SDS011;1513;47.650;10.720;2023-06-24T04:49:20;11.40;;;8.03;;
3006;SDS011;1513;47.650;10.720;2023-06-24T04:51:46;9.50;;;6.70;;
3006;SDS011;1513;47.650;10.720;2023-06-24T04:54:13;10.47;;;7.70;;
3006;SDS011;1513;47.650;10.720;2023-06-24T04:56:39;9.03;;;6.93;;
3006;SDS011;1513;47.650;10.720;2023-06-24T04:59:06;11.40;;;7.93;;
3006;SDS011;1513;47.650;10.720;2023-06-24T05:01:32;9.50;;;7.20;;
3006;SDS011;1513;47.650;10.720;2023-06-24T05:03:59;10.30;;;7.40;;
3006;SDS011;1513;47.650;10.720;2023-06-24T05:06:25;10.43;;;7.30;;
3006;SDS011;1513;47.650;10.720;2023-06-24T05:08:52;10.97;;;7.17;;
3006;SDS011;1513;47.650;10.720;2023-06-24T05:11:18;9.03;;;6.80;;
3006;SDS011;1513;47.650;10.720;2023-06-24T05:13:44;10.17;;;7.37;;
3006;SDS011;1513;47.650;10.720;2023-06-24T05:16:11;9.43;;;7.00;;
3006;SDS011;1513;47.650;10.720;2023-06-24T05:18:37;13.53;;;7.47;;
3006;SDS011;1513;47.650;10.720;2023-06-24T05:21:03;10.53;;;7.00;;
3006;SDS011;1513;47.650;10.720;2023-06-24T05:23:29;9.40;;;7.00;;
3006;SDS011;1513;47.650;10.720;2023-06-24T05:25:55;10.13;;;7.40;;
3006;SDS011;1513;47.650;10.720;2023-06-24T05:28:22;9.23;;;6.40;;
3006;SDS011;1513;47.650;10.720;2023-06-24T05:30:48;11.93;;;7.87;;
3006;SDS011;1513;47.650;10.720;2023-06-24T05:33:14;9.80;;;6.70;;
3006;SDS011;1513;47.650;10.720;2023-06-24T05:35:42;10.50;;;6.90;;
3006;SDS011;1513;47.650;10.720;2023-06-24T05:38:09;8.80;;;5.73;;
3006;SDS011;1513;47.650;10.720;2023-06-24T05:40:37;9.13;;;6.00;;
3006;SDS011;1513;47.650;10.720;2023-06-24T05:43:03;7.23;;;6.33;;
3006;SDS011;1513;47.650;10.720;2023-06-24T05:45:29;7.03;;;5.87;;
3006;SDS011;1513;47.650;10.720;2023-06-24T05:47:56;11.07;;;6.17;;
3006;SDS011;1513;47.650;10.720;2023-06-24T05:50:22;7.80;;;5.43;;
3006;SDS011;1513;47.650;10.720;2023-06-24T05:52:48;7.00;;;5.40;;
3006;SDS011;1513;47.650;10.720;2023-06-24T05:55:14;6.93;;;4.83;;
3006;SDS011;1513;47.650;10.720;2023-06-24T05:57:41;5.77;;;4.77;;
3006;SDS011;1513;47.650;10.720;2023-06-24T06:00:07;8.13;;;4.83;;
3006;SDS011;1513;47.650;10.720;2023-06-24T06:02:43;6.17;;;5.30;;
3006;SDS011;1513;47.650;10.720;2023-06-24T06:05:10;5.13;;;4.60;;
3006;SDS011;1513;47.650;10.720;2023-06-24T06:07:36;6.60;;;4.60;;
3006;SDS011;1513;47.650;10.720;2023-06-24T06:10:04;6.67;;;4.87;;
3006;SDS011;1513;47.650;10.720;2023-06-24T06:12:31;6.30;;;4.90;;
3006;SDS011;1513;47.650;10.720;2023-06-24T06:14:58;6.97;;;4.30;;
3006;SDS011;1513;47.650;10.720;2023-06-24T06:17:24;9.70;;;6.33;;
3006;SDS011;1513;47.650;10.720;2023-06-24T06:19:50;5.87;;;4.10;;
3006;SDS011;1513;47.650;10.720;2023-06-24T06:22:16;5.33;;;4.33;;
3006;SDS011;1513;47.650;10.720;2023-06-24T06:24:43;7.03;;;4.63;;
3006;SDS011;1513;47.650;10.720;2023-06-24T06:27:10;7.30;;;4.17;;
3006;SDS011;1513;47.650;10.720;2023-06-24T06:29:40;4.83;;;3.90;;
3006;SDS011;1513;47.650;10.720;2023-06-24T06:32:06;4.73;;;4.23;;
3006;SDS011;1513;47.650;10.720;2023-06-24T06:34:32;4.50;;;4.10;;
3006;SDS011;1513;47.650;10.720;2023-06-24T06:36:59;5.10;;;4.60;;
3006;SDS011;1513;47.650;10.720;2023-06-24T06:39:25;5.50;;;3.70;;
3006;SDS011;1513;47.650;10.720;2023-06-24T06:41:52;4.07;;;3.67;;
3006;SDS011;1513;47.650;10.720;2023-06-24T06:44:18;7.40;;;4.30;;
3006;SDS011;1513;47.650;10.720;2023-06-24T06:46:44;4.10;;;3.70;;
3006;SDS011;1513;47.650;10.720;2023-06-24T06:49:10;4.83;;;3.27;;
3006;SDS011;1513;47.650;10.720;2023-06-24T06:51:37;4.47;;;3.70;;
3006;SDS011;1513;47.650;10.720;2023-06-24T06:54:03;4.67;;;4.00;;
3006;SDS011;1513;47.650;10.720;2023-06-24T06:56:29;3.70;;;3.40;;
3006;SDS011;1513;47.650;10.720;2023-06-24T06:58:56;3.60;;;3.30;;
3006;SDS011;1513;47.650;10.720;2023-06-24T07:01:22;4.23;;;3.50;;
3006;SDS011;1513;47.650;10.720;2023-06-24T07:03:49;3.03;;;2.80;;
3006;SDS011;1513;47.650;10.720;2023-06-24T07:06:17;3.10;;;2.80;;
3006;SDS011;1513;47.650;10.720;2023-06-24T07:08:44;3.73;;;2.90;;
3006;SDS011;1513;47.650;10.720;2023-06-24T07:11:11;4.23;;;3.67;;
3006;SDS011;1513;47.650;10.720;2023-06-24T07:13:38;6.23;;;3.07;;
3006;SDS011;1513;47.650;10.720;2023-06-24T07:16:04;2.80;;;2.60;;
3006;SDS011;1513;47.650;10.720;2023-06-24T07:18:30;3.90;;;3.00;;
3006;SDS011;1513;47.650;10.720;2023-06-24T07:20:59;4.23;;;3.20;;
3006;SDS011;1513;47.650;10.720;2023-06-24T07:23:26;3.50;;;3.20;;
3006;SDS011;1513;47.650;10.720;2023-06-24T07:25:53;3.50;;;3.20;;
3006;SDS011;1513;47.650;10.720;2023-06-24T07:28:19;3.67;;;3.07;;
3006;SDS011;1513;47.650;10.720;2023-06-24T07:30:45;4.57;;;3.40;;
3006;SDS011;1513;47.650;10.720;2023-06-24T07:33:12;2.87;;;2.67;;
3006;SDS011;1513;47.650;10.720;2023-06-24T07:35:38;3.47;;;3.17;;
3006;SDS011;1513;47.650;10.720;2023-06-24T07:38:05;4.17;;;3.10;;
3006;SDS011;1513;47.650;10.720;2023-06-24T07:40:31;3.93;;;3.30;;
3006;SDS011;1513;47.650;10.720;2023-06-24T07:42:57;3.57;;;3.07;;
3006;SDS011;1513;47.650;10.720;2023-06-24T07:45:24;6.93;;;4.80;;
3006;SDS011;1513;47.650;10.720;2023-06-24T07:47:50;4.53;;;3.90;;
3006;SDS011;1513;47.650;10.720;2023-06-24T07:50:17;5.33;;;3.77;;
3006;SDS011;1513;47.650;10.720;2023-06-24T07:52:43;4.63;;;3.43;;
3006;SDS011;1513;47.650;10.720;2023-06-24T07:55:10;3.57;;;3.10;;
3006;SDS011;1513;47.650;10.720;2023-06-24T07:57:36;4.33;;;3.93;;
3006;SDS011;1513;47.650;10.720;2023-06-24T08:00:03;6.60;;;3.93;;
3006;SDS011;1513;47.650;10.720;2023-06-24T08:02:38;4.03;;;3.40;;
3006;SDS011;1513;47.650;10.720;2023-06-24T08:05:05;4.30;;;3.90;;
3006;SDS011;1513;47.650;10.720;2023-06-24T08:07:32;3.80;;;3.33;;
3006;SDS011;1513;47.650;10.720;2023-06-24T08:09:58;7.67;;;5.30;;
3006;SDS011;1513;47.650;10.720;2023-06-24T08:12:24;4.47;;;3.70;;
3006;SDS011;1513;47.650;10.720;2023-06-24T08:14:50;4.57;;;4.00;;
3006;SDS011;1513;47.650;10.720;2023-06-24T08:17:17;5.40;;;4.50;;
3006;SDS011;1513;47.650;10.720;2023-06-24T08:19:43;4.53;;;3.73;;
3006;SDS011;1513;47.650;10.720;2023-06-24T08:22:09;4.40;;;3.90;;
3006;SDS011;1513;47.650;10.720;2023-06-24T08:24:36;3.83;;;3.53;;
3006;SDS011;1513;47.650;10.720;2023-06-24T08:27:02;4.80;;;4.30;;
3006;SDS011;1513;47.650;10.720;2023-06-24T08:29:29;5.57;;;5.07;;
3006;SDS011;1513;47.650;10.720;2023-06-24T08:31:55;5.10;;;4.50;;
3006;SDS011;1513;47.650;10.720;2023-06-24T08:34:21;4.73;;;4.00;;
3006;SDS011;1513;47.650;10.720;2023-06-24T08:36:47;5.20;;;4.17;;
3006;SDS011;1513;47.650;10.720;2023-06-24T08:39:14;4.60;;;4.20;;
3006;SDS011;1513;47.650;10.720;2023-06-24T08:41:40;4.67;;;4.27;;
3006;SDS011;1513;47.650;10.720;2023-06-24T08:44:06;5.37;;;4.37;;
3006;SDS011;1513;47.650;10.720;2023-06-24T08:46:33;5.20;;;4.47;;
3006;SDS011;1513;47.650;10.720;2023-06-24T08:51:42;7.20;;;4.60;;
3006;SDS011;1513;47.650;10.720;2023-06-24T08:54:09;4.47;;;4.07;;
3006;SDS011;1513;47.650;10.720;2023-06-24T08:56:37;4.23;;;3.80;;
3006;SDS011;1513;47.650;10.720;2023-06-24T08:59:08;6.67;;;4.77;;
3006;SDS011;1513;47.650;10.720;2023-06-24T09:01:34;4.60;;;4.10;;
3006;SDS011;1513;47.650;10.720;2023-06-24T09:04:00;8.80;;;4.20;;
3006;SDS011;1513;47.650;10.720;2023-06-24T09:06:27;4.73;;;3.60;;
3006;SDS011;1513;47.650;10.720;2023-06-24T09:08:54;4.93;;;4.00;;
3006;SDS011;1513;47.650;10.720;2023-06-24T09:11:27;4.83;;;4.37;;
3006;SDS011;1513;47.650;10.720;2023-06-24T09:13:57;8.30;;;4.23;;
3006;SDS011;1513;47.650;10.720;2023-06-24T09:16:24;4.93;;;4.20;;
3006;SDS011;1513;47.650;10.720;2023-06-24T09:18:50;5.10;;;4.47;;
3006;SDS011;1513;47.650;10.720;2023-06-24T09:21:21;5.60;;;4.23;;
3006;SDS011;1513;47.650;10.720;2023-06-24T09:23:57;5.10;;;3.67;;
3006;SDS011;1513;47.650;10.720;2023-06-24T09:26:24;4.87;;;3.77;;
3006;SDS011;1513;47.650;10.720;2023-06-24T09:28:51;3.93;;;3.40;;
3006;SDS011;1513;47.650;10.720;2023-06-24T09:31:18;5.70;;;4.20;;
3006;SDS011;1513;47.650;10.720;2023-06-24T09:33:44;4.13;;;3.73;;
3006;SDS011;1513;47.650;10.720;2023-06-24T09:36:15;5.43;;;4.77;;
3006;SDS011;1513;47.650;10.720;2023-06-24T09:38:42;4.00;;;3.70;;
3006;SDS011;1513;47.650;10.720;2023-06-24T09:41:11;7.90;;;4.97;;
3006;SDS011;1513;47.650;10.720;2023-06-24T09:43:38;4.67;;;4.27;;
3006;SDS011;1513;47.650;10.720;2023-06-24T09:46:06;10.00;;;4.77;;
3006;SDS011;1513;47.650;10.720;2023-06-24T09:48:33;4.90;;;4.40;;
3006;SDS011;1513;47.650;10.720;2023-06-24T09:51:00;5.97;;;4.67;;
3006;SDS011;1513;47.650;10.720;2023-06-24T09:53:30;5.50;;;4.50;;
3006;SDS011;1513;47.650;10.720;2023-06-24T09:55:59;6.30;;;4.57;;
3006;SDS011;1513;47.650;10.720;2023-06-24T09:58:28;5.17;;;4.63;;
3006;SDS011;1513;47.650;10.720;2023-06-24T10:00:56;7.00;;;4.90;;
3006;SDS011;1513;47.650;10.720;2023-06-24T10:03:27;4.67;;;4.03;;
3006;SDS011;1513;47.650;10.720;2023-06-24T10:05:55;6.27;;;4.53;;
3006;SDS011;1513;47.650;10.720;2023-06-24T10:08:21;4.60;;;4.07;;
3006;SDS011;1513;47.650;10.720;2023-06-24T10:10:47;6.03;;;4.27;;
3006;SDS011;1513;47.650;10.720;2023-06-24T10:13:14;4.90;;;4.07;;
3006;SDS011;1513;47.650;10.720;2023-06-24T10:15:41;6.00;;;4.30;;
3006;SDS011;1513;47.650;10.720;2023-06-24T10:18:52;6.10;;;4.30;;
3006;SDS011;1513;47.650;10.720;2023-06-24T10:20:57;5.73;;;4.20;;
3006;SDS011;1513;47.650;10.720;2023-06-24T10:23:29;4.87;;;4.37;;
3006;SDS011;1513;47.650;10.720;2023-06-24T10:26:00;6.20;;;4.57;;
3006;SDS011;1513;47.650;10.720;2023-06-24T10:28:26;6.60;;;4.27;;
3006;SDS011;1513;47.650;10.720;2023-06-24T10:30:57;4.80;;;4.33;;
3006;SDS011;1513;47.650;10.720;2023-06-24T10:33:24;5.07;;;4.57;;
3006;SDS011;1513;47.650;10.720;2023-06-24T10:35:50;7.07;;;4.70;;
3006;SDS011;1513;47.650;10.720;2023-06-24T10:38:18;5.07;;;4.57;;
3006;SDS011;1513;47.650;10.720;2023-06-24T10:40:44;5.30;;;4.10;;
3006;SDS011;1513;47.650;10.720;2023-06-24T10:43:23;5.00;;;4.33;;
3006;SDS011;1513;47.650;10.720;2023-06-24T10:45:58;4.90;;;4.37;;
3006;SDS011;1513;47.650;10.720;2023-06-24T10:48:24;5.57;;;4.17;;
3006;SDS011;1513;47.650;10.720;2023-06-24T10:50:51;16.30;;;4.60;;
3006;SDS011;1513;47.650;10.720;2023-06-24T10:53:17;5.17;;;4.33;;
3006;SDS011;1513;47.650;10.720;2023-06-24T10:55:44;5.73;;;3.90;;
3006;SDS011;1513;47.650;10.720;2023-06-24T10:58:13;4.47;;;4.07;;
3006;SDS011;1513;47.650;10.720;2023-06-24T11:00:41;5.37;;;3.80;;
3006;SDS011;1513;47.650;10.720;2023-06-24T11:03:12;7.27;;;4.10;;
3006;SDS011;1513;47.650;10.720;2023-06-24T11:05:40;8.10;;;4.30;;
3006;SDS011;1513;47.650;10.720;2023-06-24T11:08:08;4.70;;;4.30;;
3006;SDS011;1513;47.650;10.720;2023-06-24T11:10:48;4.70;;;4.20;;
3006;SDS011;1513;47.650;10.720;2023-06-24T11:13:14;4.70;;;4.30;;
3006;SDS011;1513;47.650;10.720;2023-06-24T11:15:41;4.27;;;3.87;;
3006;SDS011;1513;47.650;10.720;2023-06-24T11:18:08;4.43;;;3.97;;
3006;SDS011;1513;47.650;10.720;2023-06-24T11:20:36;4.80;;;4.07;;
3006;SDS011;1513;47.650;10.720;2023-06-24T11:23:06;7.73;;;4.40;;
3006;SDS011;1513;47.650;10.720;2023-06-24T11:25:38;4.73;;;3.97;;
3006;SDS011;1513;47.650;10.720;2023-06-24T11:28:19;4.80;;;3.70;;
3006;SDS011;1513;47.650;10.720;2023-06-24T11:30:45;4.00;;;3.40;;
3006;SDS011;1513;47.650;10.720;2023-06-24T11:33:12;5.00;;;4.10;;
3006;SDS011;1513;47.650;10.720;2023-06-24T11:35:38;4.13;;;3.70;;
3006;SDS011;1513;47.650;10.720;2023-06-24T11:38:04;5.27;;;4.27;;
3006;SDS011;1513;47.650;10.720;2023-06-24T11:40:31;4.90;;;4.20;;
3006;SDS011;1513;47.650;10.720;2023-06-24T11:42:59;4.17;;;3.77;;
3006;SDS011;1513;47.650;10.720;2023-06-24T11:45:27;4.20;;;3.80;;
3006;SDS011;1513;47.650;10.720;2023-06-24T11:47:53;5.50;;;4.40;;
3006;SDS011;1513;47.650;10.720;2023-06-24T11:50:29;3.87;;;3.47;;
3006;SDS011;1513;47.650;10.720;2023-06-24T11:52:56;4.30;;;3.87;;
3006;SDS011;1513;47.650;10.720;2023-06-24T11:55:24;4.17;;;3.77;;
3006;SDS011;1513;47.650;10.720;2023-06-24T12:00:30;4.13;;;3.73;;
3006;SDS011;1513;47.650;10.720;2023-06-24T12:02:58;4.30;;;3.90;;
3006;SDS011;1513;47.650;10.720;2023-06-24T12:05:27;4.43;;;4.03;;
3006;SDS011;1513;47.650;10.720;2023-06-24T12:07:59;4.63;;;3.50;;
3006;SDS011;1513;47.650;10.720;2023-06-24T12:10:27;7.93;;;4.93;;
3006;SDS011;1513;47.650;10.720;2023-06-24T12:13:00;4.53;;;3.70;;
3006;SDS011;1513;47.650;10.720;2023-06-24T12:15:28;5.40;;;4.10;;
3006;SDS011;1513;47.650;10.720;2023-06-24T12:17:54;4.27;;;3.87;;
3006;SDS011;1513;47.650;10.720;2023-06-24T12:20:21;5.67;;;4.00;;
3006;SDS011;1513;47.650;10.720;2023-06-24T12:22:49;3.93;;;3.50;;
3006;SDS011;1513;47.650;10.720;2023-06-24T12:25:16;4.23;;;3.40;;
3006;SDS011;1513;47.650;10.720;2023-06-24T12:27:43;5.50;;;4.10;;
3006;SDS011;1513;47.650;10.720;2023-06-24T12:30:10;4.57;;;3.63;;
3006;SDS011;1513;47.650;10.720;2023-06-24T12:32:37;3.80;;;3.50;;
3006;SDS011;1513;47.650;10.720;2023-06-24T12:35:04;5.97;;;4.07;;
3006;SDS011;1513;47.650;10.720;2023-06-24T12:37:31;4.40;;;4.00;;
3006;SDS011;1513;47.650;10.720;2023-06-24T12:39:58;3.73;;;3.43;;
3006;SDS011;1513;47.650;10.720;2023-06-24T12:42:25;7.03;;;4.07;;
3006;SDS011;1513;47.650;10.720;2023-06-24T12:44:52;5.83;;;4.20;;
3006;SDS011;1513;47.650;10.720;2023-06-24T12:47:18;5.20;;;3.93;;
3006;SDS011;1513;47.650;10.720;2023-06-24T12:49:45;4.60;;;4.20;;
3006;SDS011;1513;47.650;10.720;2023-06-24T12:52:15;4.40;;;3.90;;
3006;SDS011;1513;47.650;10.720;2023-06-24T12:54:41;3.97;;;3.57;;
3006;SDS011;1513;47.650;10.720;2023-06-24T12:57:08;5.67;;;4.33;;
3006;SDS011;1513;47.650;10.720;2023-06-24T12:59:34;4.20;;;3.80;;
3006;SDS011;1513;47.650;10.720;2023-06-24T13:02:00;4.60;;;4.20;;
3006;SDS011;1513;47.650;10.720;2023-06-24T13:04:27;5.17;;;3.90;;
3006;SDS011;1513;47.650;10.720;2023-06-24T13:06:53;4.40;;;3.97;;
3006;SDS011;1513;47.650;10.720;2023-06-24T13:09:19;4.50;;;4.10;;
3006;SDS011;1513;47.650;10.720;2023-06-24T13:11:46;5.47;;;4.23;;
3006;SDS011;1513;47.650;10.720;2023-06-24T13:14:14;5.27;;;4.00;;
3006;SDS011;1513;47.650;10.720;2023-06-24T13:16:40;4.50;;;3.80;;
3006;SDS011;1513;47.650;10.720;2023-06-24T13:19:07;4.83;;;4.17;;
3006;SDS011;1513;47.650;10.720;2023-06-24T13:21:33;4.87;;;4.03;;
3006;SDS011;1513;47.650;10.720;2023-06-24T13:23:59;4.70;;;4.30;;
3006;SDS011;1513;47.650;10.720;2023-06-24T13:26:26;4.83;;;3.70;;
3006;SDS011;1513;47.650;10.720;2023-06-24T13:28:52;8.97;;;4.20;;
3006;SDS011;1513;47.650;10.720;2023-06-24T13:31:19;7.00;;;4.07;;
3006;SDS011;1513;47.650;10.720;2023-06-24T13:33:46;4.07;;;3.67;;
3006;SDS011;1513;47.650;10.720;2023-06-24T13:36:27;4.60;;;3.80;;
3006;SDS011;1513;47.650;10.720;2023-06-24T13:38:58;5.30;;;4.17;;
3006;SDS011;1513;47.650;10.720;2023-06-24T13:41:24;6.00;;;3.90;;
3006;SDS011;1513;47.650;10.720;2023-06-24T13:43:54;4.30;;;3.87;;
3006;SDS011;1513;47.650;10.720;2023-06-24T13:46:24;5.03;;;3.80;;
3006;SDS011;1513;47.650;10.720;2023-06-24T13:48:50;4.90;;;4.40;;
3006;SDS011;1513;47.650;10.720;2023-06-24T13:51:20;4.10;;;3.73;;
3006;SDS011;1513;47.650;10.720;2023-06-24T13:53:50;4.97;;;4.17;;
3006;SDS011;1513;47.650;10.720;2023-06-24T13:56:17;5.00;;;4.33;;
3006;SDS011;1513;47.650;10.720;2023-06-24T13:58:44;4.50;;;4.00;;
3006;SDS011;1513;47.650;10.720;2023-06-24T14:01:11;5.97;;;4.40;;
3006;SDS011;1513;47.650;10.720;2023-06-24T14:03:38;4.80;;;4.10;;
3006;SDS011;1513;47.650;10.720;2023-06-24T14:06:04;8.37;;;3.93;;
3006;SDS011;1513;47.650;10.720;2023-06-24T14:08:31;4.30;;;3.90;;
3006;SDS011;1513;47.650;10.720;2023-06-24T14:10:58;4.83;;;4.33;;
3006;SDS011;1513;47.650;10.720;2023-06-24T14:13:25;4.37;;;3.97;;
3006;SDS011;1513;47.650;10.720;2023-06-24T14:15:52;4.70;;;4.20;;
3006;SDS011;1513;47.650;10.720;2023-06-24T14:18:21;4.63;;;4.13;;
3006;SDS011;1513;47.650;10.720;2023-06-24T14:20:48;4.43;;;4.00;;
3006;SDS011;1513;47.650;10.720;2023-06-24T14:23:14;5.20;;;4.00;;
3006;SDS011;1513;47.650;10.720;2023-06-24T14:25:41;4.27;;;3.87;;
3006;SDS011;1513;47.650;10.720;2023-06-24T14:28:07;4.23;;;3.83;;
3006;SDS011;1513;47.650;10.720;2023-06-24T14:30:33;4.83;;;4.33;;
3006;SDS011;1513;47.650;10.720;2023-06-24T14:33:00;4.73;;;4.30;;
3006;SDS011;1513;47.650;10.720;2023-06-24T14:35:26;4.53;;;3.80;;
3006;SDS011;1513;47.650;10.720;2023-06-24T14:37:53;4.60;;;4.10;;
3006;SDS011;1513;47.650;10.720;2023-06-24T14:40:19;5.00;;;4.10;;
3006;SDS011;1513;47.650;10.720;2023-06-24T14:42:45;5.10;;;4.33;;
3006;SDS011;1513;47.650;10.720;2023-06-24T14:45:11;7.20;;;4.23;;
3006;SDS011;1513;47.650;10.720;2023-06-24T14:47:38;5.10;;;3.80;;
3006;SDS011;1513;47.650;10.720;2023-06-24T14:50:04;7.03;;;4.87;;
3006;SDS011;1513;47.650;10.720;2023-06-24T14:52:31;5.70;;;3.87;;
3006;SDS011;1513;47.650;10.720;2023-06-24T14:54:57;4.10;;;3.70;;
3006;SDS011;1513;47.650;10.720;2023-06-24T14:57:23;4.90;;;4.40;;
3006;SDS011;1513;47.650;10.720;2023-06-24T14:59:51;4.57;;;4.17;;
3006;SDS011;1513;47.650;10.720;2023-06-24T15:02:17;4.70;;;3.83;;
3006;SDS011;1513;47.650;10.720;2023-06-24T15:04:43;5.53;;;4.10;;
3006;SDS011;1513;47.650;10.720;2023-06-24T15:07:10;6.00;;;4.90;;
3006;SDS011;1513;47.650;10.720;2023-06-24T15:09:36;5.60;;;4.53;;
3006;SDS011;1513;47.650;10.720;2023-06-24T15:12:02;5.63;;;4.70;;
3006;SDS011;1513;47.650;10.720;2023-06-24T15:14:29;4.97;;;4.00;;
3006;SDS011;1513;47.650;10.720;2023-06-24T15:16:55;6.53;;;4.60;;
3006;SDS011;1513;47.650;10.720;2023-06-24T15:19:23;4.40;;;3.93;;